createdAt,value
2022-09-17T00:01:22.717Z,11.10
2022-09-17T00:03:52.667Z,11.02
2022-09-17T00:06:22.563Z,10.98
2022-09-17T00:08:50.749Z,10.94
2022-09-17T00:11:21.166Z,11.01
2022-09-17T00:13:49.796Z,10.92
2022-09-17T00:16:24.391Z,10.91
2022-09-17T00:18:52.272Z,10.91
2022-09-17T00:21:22.269Z,10.89
2022-09-17T00:23:50.275Z,10.90
2022-09-17T00:26:18.149Z,10.93
2022-09-17T00:28:49.414Z,10.92
2022-09-17T00:31:17.359Z,10.84
2022-09-17T00:33:45.457Z,10.90
2022-09-17T00:36:13.596Z,10.85
2022-09-17T00:38:43.456Z,10.90
2022-09-17T00:41:11.408Z,10.91
2022-09-17T00:43:41.996Z,10.92
2022-09-17T00:46:25.013Z,10.99
2022-09-17T00:48:54.370Z,11.00
2022-09-17T00:51:26.904Z,10.95
2022-09-17T00:53:56.806Z,11.02
2022-09-17T00:56:27.695Z,11.00
2022-09-17T00:58:56.451Z,11.07
2022-09-17T01:01:24.639Z,11.07
2022-09-17T01:03:52.559Z,11.10
2022-09-17T01:06:26.526Z,11.10
2022-09-17T01:09:05.924Z,11.13
2022-09-17T01:11:43.480Z,11.14
2022-09-17T01:14:24.493Z,11.18
2022-09-17T01:16:58.245Z,11.14
2022-09-17T01:20:04.524Z,11.09
2022-09-17T01:22:35.827Z,11.08
2022-09-17T01:25:24.786Z,11.06
2022-09-17T01:28:39.369Z,11.02
2022-09-17T01:31:26.477Z,11.01
2022-09-17T01:34:01.504Z,10.93
2022-09-17T01:36:46.309Z,10.90
2022-09-17T01:39:23.008Z,10.88
2022-09-17T01:41:55.293Z,10.84
2022-09-17T01:44:29.569Z,10.78
2022-09-17T01:47:03.090Z,10.77
2022-09-17T01:49:31.788Z,10.83
2022-09-17T01:52:00.228Z,10.82
2022-09-17T01:54:32.158Z,10.81
2022-09-17T01:57:02.882Z,10.79
2022-09-17T01:59:34.424Z,10.79
2022-09-17T02:02:08.443Z,10.73
2022-09-17T02:04:38.237Z,10.70
2022-09-17T02:07:09.715Z,10.64
2022-09-17T02:09:41.124Z,10.71
2022-09-17T02:12:13.188Z,10.70
2022-09-17T02:14:43.992Z,10.71
2022-09-17T02:17:17.880Z,10.68
2022-09-17T02:19:45.845Z,10.59
2022-09-17T02:22:27.597Z,10.61
2022-09-17T02:25:02.710Z,10.60
2022-09-17T02:27:38.822Z,10.64
2022-09-17T02:30:07.802Z,10.59
2022-09-17T02:32:37.269Z,10.65
2022-09-17T02:35:06.417Z,10.61
2022-09-17T02:37:34.560Z,10.69
2022-09-17T02:40:03.782Z,10.64
2022-09-17T02:42:36.921Z,10.56
2022-09-17T02:45:08.892Z,10.64
2022-09-17T02:47:51.084Z,10.66
2022-09-17T02:50:28.341Z,10.63
2022-09-17T02:53:06.100Z,10.61
2022-09-17T02:55:38.626Z,10.64
2022-09-17T02:58:13.795Z,10.60
2022-09-17T03:00:41.782Z,10.62
2022-09-17T03:03:16.142Z,10.47
2022-09-17T03:05:45.527Z,10.57
2022-09-17T03:08:15.764Z,10.63
2022-09-17T03:10:43.645Z,10.63
2022-09-17T03:13:11.542Z,10.63
2022-09-17T03:15:39.476Z,10.59
2022-09-17T03:18:07.279Z,10.64
2022-09-17T03:20:36.831Z,10.67
2022-09-17T03:23:06.792Z,10.57
2022-09-17T03:25:34.673Z,10.62
2022-09-17T03:28:02.913Z,10.60
2022-09-17T03:30:30.697Z,10.62
2022-09-17T03:32:58.594Z,10.62
2022-09-17T03:35:26.542Z,10.65
2022-09-17T03:37:55.704Z,10.64
2022-09-17T03:40:23.935Z,10.59
2022-09-17T03:42:51.796Z,10.58
2022-09-17T03:45:19.626Z,10.59
2022-09-17T03:47:47.728Z,10.60
2022-09-17T03:50:15.533Z,10.57
2022-09-17T03:52:44.238Z,10.54
2022-09-17T03:55:13.477Z,10.55
2022-09-17T03:57:41.273Z,10.66
2022-09-17T04:00:10.182Z,10.65
2022-09-17T04:02:38.128Z,10.61
2022-09-17T04:05:07.424Z,10.54
2022-09-17T04:07:35.221Z,10.57
2022-09-17T04:10:04.933Z,10.56
2022-09-17T04:12:34.301Z,10.50
2022-09-17T04:15:02.430Z,10.44
2022-09-17T04:17:30.271Z,10.38
2022-09-17T04:19:58.224Z,10.38
2022-09-17T04:22:26.179Z,10.41
2022-09-17T04:24:54.114Z,10.38
2022-09-17T04:27:22.049Z,10.34
2022-09-17T04:29:51.406Z,10.31
2022-09-17T04:32:19.597Z,10.24
2022-09-17T04:34:47.467Z,10.25
2022-09-17T04:37:15.543Z,10.23
2022-09-17T04:39:43.368Z,10.22
2022-09-17T04:42:11.204Z,10.15
2022-09-17T04:44:39.098Z,10.19
2022-09-17T04:47:08.555Z,10.20
2022-09-17T04:49:36.536Z,10.20
2022-09-17T04:52:04.742Z,10.27
2022-09-17T04:54:32.675Z,10.22
2022-09-17T04:57:00.596Z,10.24
2022-09-17T04:59:28.753Z,10.17
2022-09-17T05:01:56.689Z,10.20
2022-09-17T05:04:26.021Z,10.15
2022-09-17T05:06:54.406Z,10.14
2022-09-17T05:09:22.224Z,10.07
2022-09-17T05:11:50.010Z,10.06
2022-09-17T05:14:17.966Z,10.04
2022-09-17T05:16:48.961Z,10.02
2022-09-17T05:19:16.832Z,10.04
2022-09-17T05:21:46.077Z,9.98
2022-09-17T05:24:14.051Z,10.03
2022-09-17T05:26:42.203Z,10.06
2022-09-17T05:29:10.277Z,10.06
2022-09-17T05:31:38.358Z,10.07
2022-09-17T05:34:06.266Z,10.10
2022-09-17T05:36:34.100Z,10.11
2022-09-17T05:39:03.596Z,10.09
2022-09-17T05:41:31.516Z,10.13
2022-09-17T05:43:59.439Z,10.12
2022-09-17T05:46:27.735Z,10.19
2022-09-17T05:48:57.022Z,10.20
2022-09-17T05:51:26.051Z,10.20
2022-09-17T05:53:55.644Z,10.22
2022-09-17T05:56:25.501Z,10.22
2022-09-17T05:58:56.941Z,10.24
2022-09-17T06:01:25.101Z,10.25
2022-09-17T06:03:53.536Z,10.22
2022-09-17T06:06:21.443Z,10.16
2022-09-17T06:08:49.344Z,10.14
2022-09-17T06:11:17.226Z,10.15
2022-09-17T06:13:46.456Z,10.13
2022-09-17T06:16:14.280Z,10.19
2022-09-17T06:18:42.135Z,10.11
2022-09-17T06:21:10.506Z,10.18
2022-09-17T06:23:38.313Z,10.17
2022-09-17T06:26:07.523Z,10.13
2022-09-17T06:28:40.577Z,10.10
2022-09-17T06:31:12.403Z,10.19
2022-09-17T06:33:40.642Z,10.17
2022-09-17T06:36:13.613Z,10.16
2022-09-17T06:38:42.604Z,10.21
2022-09-17T06:41:10.548Z,10.24
2022-09-17T06:43:38.370Z,10.22
2022-09-17T06:46:09.050Z,10.16
2022-09-17T06:48:39.118Z,10.15
2022-09-17T06:51:08.582Z,10.14
2022-09-17T06:53:37.843Z,10.20
2022-09-17T06:56:08.317Z,10.19
2022-09-17T06:58:37.891Z,10.21
2022-09-17T07:01:06.473Z,10.24
2022-09-17T07:03:34.813Z,10.21
2022-09-17T07:06:04.072Z,10.23
2022-09-17T07:08:34.474Z,10.30
2022-09-17T07:11:02.497Z,10.32
2022-09-17T07:13:30.274Z,10.30
2022-09-17T07:16:00.569Z,10.32
2022-09-17T07:18:29.243Z,10.24
2022-09-17T07:20:58.110Z,10.18
2022-09-17T07:23:28.767Z,10.19
2022-09-17T07:25:58.170Z,10.16
2022-09-17T07:28:26.642Z,10.17
2022-09-17T07:30:55.735Z,10.11
2022-09-17T07:33:26.325Z,10.12
2022-09-17T07:35:54.952Z,10.09
2022-09-17T07:38:23.101Z,10.08
2022-09-17T07:40:58.087Z,10.08
2022-09-17T07:43:26.453Z,10.15
2022-09-17T07:45:54.630Z,10.14
2022-09-17T07:48:22.769Z,10.19
2022-09-17T07:50:51.238Z,10.08
2022-09-17T07:53:19.089Z,10.08
2022-09-17T07:55:53.455Z,10.06
2022-09-17T07:58:23.171Z,10.02
2022-09-17T08:00:51.606Z,9.97
2022-09-17T08:03:19.691Z,9.87
2022-09-17T08:05:48.180Z,9.89
2022-09-17T08:08:20.919Z,9.89
2022-09-17T08:10:49.141Z,9.93
2022-09-17T08:13:17.166Z,9.97
2022-09-17T08:15:46.870Z,10.09
2022-09-17T08:18:17.420Z,10.10
2022-09-17T08:20:45.344Z,10.09
2022-09-17T08:23:13.527Z,10.10
2022-09-17T08:25:41.431Z,10.04
2022-09-17T08:28:09.565Z,10.13
2022-09-17T08:30:37.357Z,10.11
2022-09-17T08:33:06.742Z,10.10
2022-09-17T08:35:34.629Z,10.11
2022-09-17T08:38:02.604Z,10.17
2022-09-17T08:40:31.576Z,10.19
2022-09-17T08:43:02.494Z,10.26
2022-09-17T08:45:30.609Z,10.33
2022-09-17T08:48:10.744Z,10.42
2022-09-17T08:50:42.747Z,10.51
2022-09-17T08:53:28.459Z,10.66
2022-09-17T08:56:01.292Z,10.78
2022-09-17T08:58:47.939Z,10.86
2022-09-17T09:01:32.663Z,10.92
2022-09-17T09:04:08.483Z,10.89
2022-09-17T09:06:41.134Z,10.86
2022-09-17T09:09:13.607Z,10.93
2022-09-17T09:11:42.691Z,11.04
2022-09-17T09:14:14.633Z,11.07
2022-09-17T09:16:45.272Z,11.23
2022-09-17T09:19:23.792Z,11.37
2022-09-17T09:22:03.493Z,11.37
2022-09-17T09:24:38.543Z,11.43
2022-09-17T09:27:16.915Z,11.44
2022-09-17T09:29:51.252Z,11.50
2022-09-17T09:32:26.388Z,11.49
2022-09-17T09:34:55.901Z,11.47
2022-09-17T09:37:28.163Z,11.63
2022-09-17T09:39:57.988Z,11.72
2022-09-17T09:42:31.146Z,11.69
2022-09-17T09:45:04.785Z,11.73
2022-09-17T09:47:57.807Z,11.70
2022-09-17T09:51:05.115Z,11.66
2022-09-17T09:53:43.001Z,11.70
2022-09-17T09:56:25.029Z,11.72
2022-09-17T09:58:54.195Z,11.73
2022-09-17T10:01:22.347Z,11.68
2022-09-17T10:03:51.992Z,11.72
2022-09-17T10:06:20.825Z,11.72
2022-09-17T10:09:14.405Z,11.75
2022-09-17T10:11:42.522Z,11.73
2022-09-17T10:14:23.611Z,11.74
2022-09-17T10:16:51.613Z,11.75
2022-09-17T10:19:25.011Z,11.80
2022-09-17T10:21:53.524Z,11.86
2022-09-17T10:24:27.195Z,11.99
2022-09-17T10:27:02.046Z,12.14
2022-09-17T10:29:30.336Z,12.32
2022-09-17T10:31:59.356Z,12.45
2022-09-17T10:34:28.652Z,12.60
2022-09-17T10:36:57.356Z,12.57
2022-09-17T10:39:34.771Z,12.52
2022-09-17T10:42:04.661Z,12.53
2022-09-17T10:44:35.184Z,12.58
2022-09-17T10:47:05.799Z,12.57
2022-09-17T10:49:39.968Z,12.59
2022-09-17T10:52:15.617Z,12.68
2022-09-17T10:54:58.856Z,12.82
2022-09-17T10:57:39.185Z,12.91
2022-09-17T11:00:14.448Z,13.01
2022-09-17T11:03:05.871Z,13.13
2022-09-17T11:05:46.919Z,13.11
2022-09-17T11:08:18.602Z,13.20
2022-09-17T11:10:54.255Z,13.24
2022-09-17T11:13:29.917Z,13.18
2022-09-17T11:16:09.746Z,13.22
2022-09-17T11:18:41.537Z,13.44
2022-09-17T11:21:42.177Z,13.58
2022-09-17T11:24:32.832Z,13.46
2022-09-17T11:27:09.289Z,13.47
2022-09-17T11:29:56.736Z,13.54
2022-09-17T11:32:39.562Z,13.45
2022-09-17T11:35:10.209Z,13.36
2022-09-17T11:37:41.688Z,12.91
2022-09-17T11:40:14.918Z,12.52
2022-09-17T11:42:46.689Z,12.25
2022-09-17T11:45:18.835Z,12.04
2022-09-17T11:47:49.341Z,11.83
2022-09-17T11:50:21.366Z,11.80
2022-09-17T11:52:57.424Z,11.81
2022-09-17T11:55:30.641Z,11.86
2022-09-17T11:58:02.529Z,11.88
2022-09-17T12:00:31.740Z,12.09
2022-09-17T12:03:03.238Z,12.34
2022-09-17T12:05:34.427Z,12.66
2022-09-17T12:08:06.114Z,12.79
2022-09-17T12:10:38.698Z,12.93
2022-09-17T12:13:17.939Z,13.07
2022-09-17T12:15:52.945Z,13.11
2022-09-17T12:18:33.312Z,13.16
2022-09-17T12:21:03.175Z,13.21
2022-09-17T12:23:38.819Z,13.36
2022-09-17T12:26:15.524Z,13.47
2022-09-17T12:28:51.925Z,13.66
2022-09-17T12:31:26.271Z,13.84
2022-09-17T12:33:57.619Z,14.10
2022-09-17T12:36:37.667Z,14.12
2022-09-17T12:39:21.404Z,14.04
2022-09-17T12:41:56.682Z,13.99
2022-09-17T12:44:39.277Z,13.91
2022-09-17T12:47:22.350Z,14.02
2022-09-17T12:50:05.270Z,14.01
2022-09-17T12:52:45.521Z,14.01
2022-09-17T12:55:31.076Z,13.97
2022-09-17T12:58:04.594Z,14.06
2022-09-17T13:00:39.108Z,14.11
2022-09-17T13:03:13.135Z,14.17
2022-09-17T13:05:56.981Z,14.12
2022-09-17T13:08:56.354Z,13.98
2022-09-17T13:12:00.204Z,13.91
2022-09-17T13:14:39.284Z,14.06
2022-09-17T13:17:11.981Z,14.13
2022-09-17T13:19:45.393Z,14.07
2022-09-17T13:22:17.949Z,14.00
2022-09-17T13:24:49.071Z,13.99
2022-09-17T13:27:22.640Z,13.92
2022-09-17T13:30:01.136Z,13.89
2022-09-17T13:32:51.200Z,13.76
2022-09-17T13:35:51.486Z,13.67
2022-09-17T13:38:24.273Z,13.62
2022-09-17T13:40:53.083Z,13.59
2022-09-17T13:43:24.025Z,13.47
2022-09-17T13:46:12.398Z,13.63
2022-09-17T13:48:57.829Z,13.75
2022-09-17T13:51:53.472Z,13.85
2022-09-17T13:54:23.461Z,13.95
2022-09-17T13:57:07.110Z,14.17
2022-09-17T13:59:36.536Z,14.26
2022-09-17T14:02:30.840Z,14.36
2022-09-17T14:05:31.176Z,14.45
2022-09-17T14:08:31.176Z,14.51
2022-09-17T14:11:01.531Z,14.39
2022-09-17T14:13:45.036Z,14.37
2022-09-17T14:16:35.829Z,14.24
2022-09-17T14:19:07.052Z,14.06
2022-09-17T14:21:36.742Z,14.01
2022-09-17T14:24:15.239Z,13.92
2022-09-17T14:27:01.657Z,13.84
2022-09-17T14:30:03.166Z,13.93
2022-09-17T14:32:34.196Z,14.02
2022-09-17T14:35:02.790Z,14.03
2022-09-17T14:37:33.417Z,13.98
2022-09-17T14:40:01.257Z,14.07
2022-09-17T14:42:36.325Z,14.04
2022-09-17T14:45:07.436Z,14.05
2022-09-17T14:47:35.473Z,13.98
2022-09-17T14:50:21.732Z,13.88
2022-09-17T14:52:51.705Z,13.94
2022-09-17T14:55:21.535Z,13.82
2022-09-17T14:57:52.657Z,13.73
2022-09-17T15:00:23.214Z,13.69
2022-09-17T15:02:59.379Z,13.64
2022-09-17T15:05:31.700Z,13.56
2022-09-17T15:08:12.453Z,13.53
2022-09-17T15:10:47.436Z,13.58
2022-09-17T15:13:16.923Z,13.64
2022-09-17T15:15:53.701Z,13.70
2022-09-17T15:18:22.342Z,13.71
2022-09-17T15:20:50.905Z,13.89
2022-09-17T15:23:25.390Z,13.96
2022-09-17T15:25:56.557Z,13.98
2022-09-17T15:28:29.760Z,13.97
2022-09-17T15:30:57.987Z,14.03
2022-09-17T15:33:25.915Z,14.08
2022-09-17T15:36:02.242Z,14.10
2022-09-17T15:38:33.155Z,14.07
2022-09-17T15:41:21.042Z,14.05
2022-09-17T15:43:49.424Z,14.03
2022-09-17T15:46:24.601Z,13.98
2022-09-17T15:48:52.433Z,13.88
2022-09-17T15:51:26.474Z,13.80
2022-09-17T15:53:57.819Z,13.74
2022-09-17T15:56:27.685Z,13.70
2022-09-17T15:59:01.032Z,13.82
2022-09-17T16:01:55.491Z,14.00
2022-09-17T16:04:28.811Z,14.18
2022-09-17T16:07:02.153Z,14.26
2022-09-17T16:09:40.408Z,14.30
2022-09-17T16:12:08.526Z,14.33
2022-09-17T16:14:36.384Z,14.35
2022-09-17T16:17:17.069Z,14.26
2022-09-17T16:19:45.021Z,14.10
2022-09-17T16:22:35.177Z,14.01
2022-09-17T16:25:05.247Z,13.89
2022-09-17T16:27:35.508Z,13.84
2022-09-17T16:30:05.352Z,13.80
2022-09-17T16:32:33.161Z,13.80
2022-09-17T16:35:00.978Z,13.78
2022-09-17T16:37:28.791Z,13.79
2022-09-17T16:39:56.616Z,13.71
2022-09-17T16:42:25.804Z,13.61
2022-09-17T16:44:54.859Z,13.59
2022-09-17T16:47:22.665Z,13.57
2022-09-17T16:49:50.441Z,13.54
2022-09-17T16:52:18.842Z,13.47
2022-09-17T16:54:46.668Z,13.43
2022-09-17T16:57:14.476Z,13.44
2022-09-17T16:59:43.733Z,13.40
2022-09-17T17:02:11.796Z,13.37
2022-09-17T17:04:39.564Z,13.30
2022-09-17T17:07:07.360Z,13.30
2022-09-17T17:09:35.161Z,13.24
2022-09-17T17:12:03.357Z,13.24
2022-09-17T17:14:31.164Z,13.26
2022-09-17T17:17:00.427Z,13.22
2022-09-17T17:19:29.417Z,13.23
2022-09-17T17:21:57.200Z,13.22
2022-09-17T17:24:25.412Z,13.18
2022-09-17T17:26:53.245Z,13.14
2022-09-17T17:29:21.545Z,13.11
2022-09-17T17:31:50.025Z,12.74
2022-09-17T17:34:19.332Z,12.24
2022-09-17T17:36:49.640Z,11.86
2022-09-17T17:39:17.517Z,11.64
2022-09-17T17:41:49.636Z,11.55
2022-09-17T17:44:21.689Z,11.45
2022-09-17T17:46:49.495Z,11.41
2022-09-17T17:49:17.808Z,11.31
2022-09-17T17:51:48.496Z,11.39
2022-09-17T17:54:16.437Z,11.28
2022-09-17T17:56:44.216Z,11.40
2022-09-17T17:59:12.005Z,11.30
2022-09-17T18:01:39.838Z,11.34
2022-09-17T18:04:08.543Z,11.31
2022-09-17T18:06:36.503Z,11.35
2022-09-17T18:09:06.066Z,11.35
2022-09-17T18:11:34.466Z,11.23
2022-09-17T18:14:02.482Z,11.27
2022-09-17T18:16:34.057Z,11.42
2022-09-17T18:19:01.927Z,11.36
2022-09-17T18:21:29.972Z,11.42
2022-09-17T18:23:57.757Z,11.36
2022-09-17T18:26:28.630Z,11.36
2022-09-17T18:28:56.694Z,11.40
2022-09-17T18:31:26.593Z,11.43
2022-09-17T18:33:57.635Z,11.47
2022-09-17T18:36:25.937Z,11.43
2022-09-17T18:38:56.537Z,11.41
2022-09-17T18:41:24.581Z,11.40
2022-09-17T18:43:53.784Z,11.44
2022-09-17T18:46:21.649Z,11.37
2022-09-17T18:48:54.604Z,11.42
2022-09-17T18:51:23.001Z,11.39
2022-09-17T18:53:51.763Z,11.43
2022-09-17T18:56:21.474Z,11.46
2022-09-17T18:58:50.237Z,11.40
2022-09-17T19:01:20.262Z,11.42
2022-09-17T19:03:48.285Z,11.34
2022-09-17T19:06:16.496Z,11.39
2022-09-17T19:08:45.062Z,11.40
2022-09-17T19:11:13.241Z,11.36
2022-09-17T19:13:42.709Z,11.45
2022-09-17T19:16:11.812Z,11.35
2022-09-17T19:18:41.084Z,11.42
2022-09-17T19:21:11.492Z,11.38
2022-09-17T19:23:41.976Z,11.27
2022-09-17T19:26:11.460Z,11.34
2022-09-17T19:28:40.800Z,11.29
2022-09-17T19:31:10.066Z,11.24
2022-09-17T19:33:38.469Z,11.19
2022-09-17T19:36:10.201Z,11.16
2022-09-17T19:38:38.402Z,11.13
2022-09-17T19:41:08.340Z,11.14
2022-09-17T19:43:37.039Z,11.10
2022-09-17T19:46:06.222Z,11.09
2022-09-17T19:48:35.745Z,11.12
2022-09-17T19:51:04.332Z,11.06
2022-09-17T19:53:34.684Z,11.09
2022-09-17T19:56:02.866Z,11.04
2022-09-17T19:58:30.628Z,11.02
2022-09-17T20:00:59.080Z,11.00
2022-09-17T20:03:27.309Z,10.91
2022-09-17T20:06:00.193Z,10.85
2022-09-17T20:08:28.221Z,10.79
2022-09-17T20:11:05.572Z,10.75
2022-09-17T20:13:33.393Z,10.71
2022-09-17T20:16:04.995Z,10.68
2022-09-17T20:18:33.060Z,10.63
2022-09-17T20:21:01.058Z,10.57
2022-09-17T20:23:31.759Z,10.56
2022-09-17T20:26:00.995Z,10.49
2022-09-17T20:28:29.033Z,10.48
2022-09-17T20:31:04.258Z,10.46
2022-09-17T20:33:32.372Z,10.45
2022-09-17T20:36:00.802Z,10.42
2022-09-17T20:41:22.100Z,10.40
2022-09-17T20:43:52.544Z,10.42
2022-09-17T20:46:24.815Z,10.41
2022-09-17T20:48:57.483Z,10.50
2022-09-17T20:51:26.918Z,10.44
2022-09-17T20:53:54.778Z,10.41
2022-09-17T20:56:25.337Z,10.38
2022-09-17T20:59:00.045Z,10.45
2022-09-17T21:01:32.268Z,10.37
2022-09-17T21:04:01.473Z,10.36
2022-09-17T21:06:31.127Z,10.41
2022-09-17T21:09:00.068Z,10.32
2022-09-17T21:11:32.657Z,10.32
2022-09-17T21:14:00.747Z,10.42
2022-09-17T21:16:28.966Z,10.33
2022-09-17T21:18:58.007Z,10.39
2022-09-17T21:21:26.658Z,10.37
2022-09-17T21:23:54.971Z,10.38
2022-09-17T21:26:24.049Z,10.40
2022-09-17T21:28:56.354Z,10.39
2022-09-17T21:31:31.098Z,10.34
2022-09-17T21:34:02.207Z,10.36
2022-09-17T21:36:32.072Z,10.29
2022-09-17T21:39:01.078Z,10.41
2022-09-17T21:41:29.191Z,10.44
2022-09-17T21:43:58.440Z,10.42
2022-09-17T21:46:29.081Z,10.38
2022-09-17T21:48:58.166Z,10.34
2022-09-17T21:51:30.294Z,10.37
2022-09-17T21:53:59.541Z,10.39
2022-09-17T21:56:27.623Z,10.40
2022-09-17T21:58:58.663Z,10.35
2022-09-17T22:01:31.128Z,10.37
2022-09-17T22:03:59.963Z,10.36
2022-09-17T22:06:30.250Z,10.37
2022-09-17T22:08:59.301Z,10.43
2022-09-17T22:11:29.482Z,10.47
2022-09-17T22:14:00.923Z,10.54
2022-09-17T22:16:31.176Z,10.58
2022-09-17T22:18:59.727Z,10.62
2022-09-17T22:21:28.916Z,10.61
2022-09-17T22:24:02.077Z,10.64
2022-09-17T22:26:31.946Z,10.61
2022-09-17T22:29:03.740Z,10.63
2022-09-17T22:31:31.882Z,10.65
2022-09-17T22:33:59.965Z,10.62
2022-09-17T22:36:28.461Z,10.62
2022-09-17T22:38:58.391Z,10.57
2022-09-17T22:41:27.699Z,10.70
2022-09-17T22:43:56.940Z,10.64
2022-09-17T22:46:28.381Z,10.62
2022-09-17T22:48:56.680Z,10.73
2022-09-17T22:51:24.656Z,10.64
2022-09-17T22:53:53.038Z,10.65
2022-09-17T22:56:23.315Z,10.62
2022-09-17T22:58:51.658Z,10.58
2022-09-17T23:01:21.523Z,10.59
2022-09-17T23:03:52.597Z,10.59
2022-09-17T23:06:22.436Z,10.67
2022-09-17T23:08:50.786Z,10.65
2022-09-17T23:11:20.059Z,10.60
2022-09-17T23:13:48.824Z,10.61
2022-09-17T23:16:17.364Z,10.63
2022-09-17T23:18:45.512Z,10.63
2022-09-17T23:21:16.655Z,10.64
2022-09-17T23:23:46.097Z,10.64
2022-09-17T23:26:16.665Z,10.67
2022-09-17T23:28:44.569Z,10.82
2022-09-17T23:31:14.665Z,10.74
2022-09-17T23:33:42.961Z,10.69
2022-09-17T23:36:13.226Z,10.69
2022-09-17T23:38:43.603Z,10.75
2022-09-17T23:41:13.693Z,10.75
2022-09-17T23:43:41.971Z,10.70
2022-09-17T23:46:10.212Z,10.71
2022-09-17T23:48:38.907Z,10.72
2022-09-17T23:51:07.235Z,10.75
2022-09-17T23:53:37.088Z,10.77
2022-09-17T23:56:12.707Z,10.76
2022-09-17T23:58:41.085Z,10.73
